createdAt,value
2023-04-16T00:00:26.565Z,7.65
2023-04-16T00:03:16.821Z,7.69
2023-04-16T00:06:05.586Z,7.69
2023-04-16T00:08:53.068Z,7.76
2023-04-16T00:12:05.428Z,7.74
2023-04-16T00:15:16.680Z,7.69
2023-04-16T00:18:04.322Z,7.71
2023-04-16T00:20:55.685Z,7.74
2023-04-16T00:23:48.483Z,7.71
2023-04-16T00:26:58.242Z,7.65
2023-04-16T00:29:49.727Z,7.70
2023-04-16T00:32:44.552Z,7.69
2023-04-16T00:35:32.439Z,7.67
2023-04-16T00:38:32.782Z,7.61
2023-04-16T00:41:23.761Z,7.62
2023-04-16T00:44:25.403Z,7.67
2023-04-16T00:47:30.287Z,7.77
2023-04-16T00:50:17.968Z,7.73
2023-04-16T00:53:05.713Z,7.71
2023-04-16T00:55:56.221Z,7.71
2023-04-16T00:58:43.995Z,7.75
2023-04-16T01:01:36.279Z,7.70
2023-04-16T01:04:24.851Z,7.70
2023-04-16T01:07:12.981Z,7.74
2023-04-16T01:10:05.013Z,7.73
2023-04-16T01:13:14.935Z,7.76
2023-04-16T01:16:12.408Z,7.75
2023-04-16T01:19:08.111Z,7.82
2023-04-16T01:22:10.245Z,7.78
2023-04-16T01:24:59.079Z,7.79
2023-04-16T01:28:01.487Z,7.78
2023-04-16T01:30:52.092Z,7.80
2023-04-16T01:33:39.458Z,7.85
2023-04-16T01:36:28.152Z,7.89
2023-04-16T01:39:19.669Z,7.90
2023-04-16T01:42:08.024Z,7.86
2023-04-16T01:44:58.593Z,7.84
2023-04-16T01:47:50.085Z,7.88
2023-04-16T01:50:38.049Z,7.86
2023-04-16T01:53:36.551Z,7.88
2023-04-16T01:56:26.512Z,7.93
2023-04-16T02:00:04.517Z,7.93
2023-04-16T02:02:41.132Z,7.94
2023-04-16T02:05:35.843Z,7.89
2023-04-16T02:08:29.246Z,7.91
2023-04-16T02:11:19.881Z,7.86
2023-04-16T02:14:11.795Z,7.84
2023-04-16T02:17:11.874Z,7.87
2023-04-16T02:20:03.554Z,7.88
2023-04-16T02:22:52.999Z,7.88
2023-04-16T02:25:48.212Z,7.89
2023-04-16T02:28:37.854Z,7.93
2023-04-16T02:31:28.997Z,7.93
2023-04-16T02:34:21.877Z,7.98
2023-04-16T02:37:16.168Z,7.92
2023-04-16T02:40:05.031Z,8.02
2023-04-16T02:43:04.495Z,8.03
2023-04-16T02:45:52.590Z,7.90
2023-04-16T02:49:12.310Z,7.94
2023-04-16T02:55:09.950Z,7.94
2023-04-16T02:58:05.964Z,7.99
2023-04-16T03:00:55.225Z,7.99
2023-04-16T03:03:42.957Z,7.95
2023-04-16T03:06:32.466Z,7.95
2023-04-16T03:09:20.005Z,8.03
2023-04-16T03:12:15.572Z,7.99
2023-04-16T03:15:03.395Z,7.96
2023-04-16T03:17:51.301Z,7.99
2023-04-16T03:20:52.715Z,8.01
2023-04-16T03:23:46.492Z,8.02
2023-04-16T03:26:39.330Z,7.99
2023-04-16T03:29:27.811Z,8.05
2023-04-16T03:32:15.878Z,7.92
2023-04-16T03:35:14.637Z,7.96
2023-04-16T03:38:02.464Z,7.99
2023-04-16T03:40:55.721Z,7.98
2023-04-16T03:43:43.651Z,7.93
2023-04-16T03:46:32.325Z,8.01
2023-04-16T03:49:25.151Z,7.92
2023-04-16T03:52:16.028Z,7.97
2023-04-16T03:55:04.401Z,8.03
2023-04-16T03:57:57.832Z,7.96
2023-04-16T04:00:45.978Z,7.93
2023-04-16T04:03:33.357Z,7.84
2023-04-16T04:06:23.032Z,7.86
2023-04-16T04:09:12.707Z,7.85
2023-04-16T04:12:04.100Z,7.93
2023-04-16T04:14:53.094Z,7.88
2023-04-16T04:17:41.335Z,7.95
2023-04-16T04:20:29.895Z,7.91
2023-04-16T04:23:17.622Z,7.92
2023-04-16T04:26:15.634Z,7.92
2023-04-16T04:29:07.443Z,7.99
2023-04-16T04:31:59.374Z,7.94
2023-04-16T04:34:49.443Z,7.98
2023-04-16T04:37:43.324Z,7.96
2023-04-16T04:40:31.050Z,7.91
2023-04-16T04:43:20.245Z,7.93
2023-04-16T04:46:20.517Z,7.93
2023-04-16T04:49:28.049Z,8.00
2023-04-16T04:52:17.870Z,8.04
2023-04-16T04:55:06.380Z,8.06
2023-04-16T04:57:53.889Z,8.08
2023-04-16T05:00:44.744Z,8.06
2023-04-16T05:03:36.744Z,8.03
2023-04-16T05:06:40.532Z,7.93
2023-04-16T05:09:27.772Z,7.97
2023-04-16T05:12:16.635Z,7.98
2023-04-16T05:15:04.694Z,8.00
2023-04-16T05:17:56.446Z,7.96
2023-04-16T05:20:56.450Z,7.98
2023-04-16T05:23:48.838Z,7.93
2023-04-16T05:26:38.681Z,7.95
2023-04-16T05:29:29.085Z,7.99
2023-04-16T05:32:17.249Z,7.91
2023-04-16T05:35:25.278Z,7.88
2023-04-16T05:38:23.430Z,7.93
2023-04-16T05:41:12.869Z,7.91
2023-04-16T05:44:01.703Z,7.93
2023-04-16T05:47:04.165Z,8.06
2023-04-16T05:49:51.731Z,8.04
2023-04-16T05:52:40.346Z,8.00
2023-04-16T05:55:36.487Z,8.01
2023-04-16T05:58:40.673Z,7.99
2023-04-16T06:01:29.113Z,7.99
2023-04-16T06:04:18.135Z,8.05
2023-04-16T06:07:05.823Z,8.11
2023-04-16T06:10:17.777Z,8.12
2023-04-16T06:13:14.301Z,8.04
2023-04-16T06:16:03.079Z,8.05
2023-04-16T06:18:55.781Z,8.06
2023-04-16T06:21:59.205Z,8.05
2023-04-16T06:24:47.349Z,8.10
2023-04-16T06:27:35.512Z,8.17
2023-04-16T06:30:31.278Z,8.09
2023-04-16T06:33:27.928Z,8.16
2023-04-16T06:36:17.424Z,8.05
2023-04-16T06:39:26.984Z,8.11
2023-04-16T06:42:17.937Z,8.21
2023-04-16T06:45:09.539Z,8.22
2023-04-16T06:51:26.824Z,8.04
2023-04-16T06:54:14.958Z,8.09
2023-04-16T06:57:07.571Z,8.13
2023-04-16T06:59:55.049Z,8.10
2023-04-16T07:02:42.361Z,8.21
2023-04-16T07:05:37.773Z,8.26
2023-04-16T07:08:28.675Z,8.17
2023-04-16T07:11:19.816Z,8.12
2023-04-16T07:14:09.879Z,8.12
2023-04-16T07:17:05.172Z,8.24
2023-04-16T07:19:58.874Z,8.27
2023-04-16T07:23:01.882Z,8.26
2023-04-16T07:25:57.288Z,8.25
2023-04-16T07:28:47.758Z,8.37
2023-04-16T07:31:35.885Z,8.32
2023-04-16T07:34:23.674Z,8.32
2023-04-16T07:37:11.625Z,8.30
2023-04-16T07:40:01.518Z,8.25
2023-04-16T07:42:53.642Z,8.30
2023-04-16T07:45:45.949Z,8.32
2023-04-16T07:49:11.226Z,8.33
2023-04-16T07:51:59.180Z,8.38
2023-04-16T07:55:07.855Z,8.38
2023-04-16T07:57:59.812Z,8.40
2023-04-16T08:01:16.367Z,8.32
2023-04-16T08:05:03.253Z,8.43
2023-04-16T08:07:54.021Z,8.40
2023-04-16T08:10:45.986Z,8.47
2023-04-16T08:14:04.590Z,8.47
2023-04-16T08:16:55.595Z,8.35
2023-04-16T08:19:46.379Z,8.59
2023-04-16T08:22:34.536Z,8.57
2023-04-16T08:25:27.714Z,8.73
2023-04-16T08:28:19.090Z,8.66
2023-04-16T08:31:08.033Z,8.81
2023-04-16T08:33:59.029Z,8.71
2023-04-16T08:37:10.187Z,8.75
2023-04-16T08:40:01.782Z,8.84
2023-04-16T08:43:01.991Z,8.85
2023-04-16T08:46:01.042Z,8.83
2023-04-16T08:49:01.782Z,8.95
2023-04-16T08:52:14.709Z,9.02
2023-04-16T08:55:06.430Z,8.96
2023-04-16T08:58:09.903Z,8.92
2023-04-16T09:01:08.697Z,8.94
2023-04-16T09:04:32.269Z,9.01
2023-04-16T09:10:44.195Z,9.01
2023-04-16T09:13:41.216Z,8.98
2023-04-16T09:16:34.005Z,9.01
2023-04-16T09:19:21.454Z,8.92
2023-04-16T09:22:12.702Z,8.98
2023-04-16T09:25:00.464Z,8.90
2023-04-16T09:27:50.294Z,9.04
2023-04-16T09:30:38.899Z,9.04
2023-04-16T09:33:34.505Z,8.96
2023-04-16T09:36:35.480Z,8.93
2023-04-16T09:39:27.945Z,9.06
2023-04-16T09:42:26.364Z,9.05
2023-04-16T09:45:16.534Z,9.02
2023-04-16T09:48:06.044Z,9.10
2023-04-16T09:50:59.116Z,9.35
2023-04-16T09:53:48.653Z,9.32
2023-04-16T09:57:07.765Z,9.09
2023-04-16T10:00:02.986Z,9.01
2023-04-16T10:02:51.001Z,9.18
2023-04-16T10:05:38.638Z,9.14
2023-04-16T10:08:30.642Z,9.27
2023-04-16T10:11:19.717Z,9.15
2023-04-16T10:17:13.347Z,9.17
2023-04-16T10:20:21.099Z,9.20
2023-04-16T10:23:38.748Z,9.18
2023-04-16T10:26:33.927Z,9.36
2023-04-16T10:29:41.160Z,9.28
2023-04-16T10:32:31.496Z,9.36
2023-04-16T10:35:33.345Z,9.38
2023-04-16T10:39:41.549Z,9.55
2023-04-16T10:42:42.571Z,9.54
2023-04-16T10:45:41.174Z,9.49
2023-04-16T10:49:39.178Z,9.63
2023-04-16T10:52:37.853Z,9.57
2023-04-16T10:55:36.022Z,9.54
2023-04-16T10:58:57.060Z,9.35
2023-04-16T11:01:52.906Z,9.26
2023-04-16T11:04:45.920Z,9.49
2023-04-16T11:07:53.367Z,9.64
2023-04-16T11:10:43.126Z,9.70
2023-04-16T11:13:58.280Z,9.67
2023-04-16T11:16:50.285Z,9.42
2023-04-16T11:20:26.082Z,9.55
2023-04-16T11:23:26.472Z,9.81
2023-04-16T11:26:24.628Z,9.59
2023-04-16T11:29:26.102Z,9.51
2023-04-16T11:32:22.807Z,9.39
2023-04-16T11:35:16.323Z,9.60
2023-04-16T11:38:06.678Z,9.77
2023-04-16T11:41:11.720Z,9.69
2023-04-16T11:43:59.397Z,10.09
2023-04-16T11:46:46.832Z,10.10
2023-04-16T11:49:47.978Z,9.87
2023-04-16T11:52:45.870Z,9.82
2023-04-16T11:55:48.934Z,10.09
2023-04-16T11:58:37.587Z,10.25
2023-04-16T12:01:34.935Z,10.17
2023-04-16T12:04:38.641Z,10.43
2023-04-16T12:07:58.651Z,10.51
2023-04-16T12:11:51.705Z,10.56
2023-04-16T12:15:03.455Z,10.75
2023-04-16T12:17:54.614Z,10.93
2023-04-16T12:20:50.806Z,11.16
2023-04-16T12:24:07.845Z,11.19
2023-04-16T12:27:07.260Z,11.84
2023-04-16T12:30:05.715Z,11.66
2023-04-16T12:33:13.165Z,11.79
2023-04-16T12:36:03.677Z,11.43
2023-04-16T12:38:51.184Z,11.41
2023-04-16T12:41:41.784Z,11.15
2023-04-16T12:44:29.891Z,11.26
2023-04-16T12:47:18.212Z,11.10
2023-04-16T12:50:07.331Z,11.61
2023-04-16T12:53:01.845Z,11.74
2023-04-16T12:55:57.905Z,11.29
2023-04-16T12:58:47.674Z,11.31
2023-04-16T13:01:37.352Z,11.42
2023-04-16T13:04:31.592Z,11.64
2023-04-16T13:07:28.209Z,11.36
2023-04-16T13:10:34.982Z,11.44
2023-04-16T13:13:54.095Z,11.67
2023-04-16T13:16:43.952Z,11.76
2023-04-16T13:19:38.878Z,11.92
2023-04-16T13:22:37.967Z,11.56
2023-04-16T13:25:55.628Z,11.66
2023-04-16T13:29:04.954Z,11.89
2023-04-16T13:31:55.580Z,11.99
2023-04-16T13:34:43.892Z,11.98
2023-04-16T13:38:17.383Z,12.06
2023-04-16T13:41:28.244Z,11.76
2023-04-16T13:45:13.923Z,11.88
2023-04-16T13:48:10.005Z,11.55
2023-04-16T13:51:03.056Z,11.42
2023-04-16T13:53:51.856Z,11.15
2023-04-16T13:57:03.945Z,11.16
2023-04-16T13:59:52.628Z,11.38
2023-04-16T14:02:48.488Z,11.33
2023-04-16T14:05:39.258Z,11.11
2023-04-16T14:08:32.836Z,11.10
2023-04-16T14:11:35.104Z,10.74
2023-04-16T14:14:54.288Z,10.90
2023-04-16T14:17:52.647Z,10.88
2023-04-16T14:20:53.999Z,10.89
2023-04-16T14:23:51.396Z,10.88
2023-04-16T14:26:40.950Z,10.84
2023-04-16T14:30:00.211Z,10.88
2023-04-16T14:33:00.328Z,10.95
2023-04-16T14:36:34.846Z,10.79
2023-04-16T14:39:44.683Z,10.85
2023-04-16T14:42:32.523Z,10.93
2023-04-16T14:45:20.073Z,11.14
2023-04-16T14:48:07.551Z,11.32
2023-04-16T14:50:55.191Z,11.15
2023-04-16T14:54:01.903Z,10.91
2023-04-16T14:56:53.934Z,10.69
2023-04-16T15:00:20.817Z,10.97
2023-04-16T15:03:27.133Z,11.12
2023-04-16T15:06:22.825Z,11.08
2023-04-16T15:09:32.876Z,11.20
2023-04-16T15:12:34.745Z,11.20
2023-04-16T15:15:27.922Z,11.00
2023-04-16T15:18:17.271Z,11.28
2023-04-16T15:24:49.830Z,10.90
2023-04-16T15:28:22.228Z,10.88
2023-04-16T15:31:13.162Z,10.90
2023-04-16T15:34:00.877Z,11.06
2023-04-16T15:36:48.312Z,10.96
2023-04-16T15:39:35.588Z,10.82
2023-04-16T15:42:23.676Z,10.87
2023-04-16T15:45:12.692Z,10.87
2023-04-16T15:48:00.313Z,10.86
2023-04-16T15:50:48.290Z,10.70
2023-04-16T15:53:36.289Z,10.76
2023-04-16T15:57:45.017Z,11.00
2023-04-16T16:08:14.000Z,10.79
2023-04-16T16:11:45.002Z,11.01
2023-04-16T16:18:05.887Z,10.66
2023-04-16T16:20:58.586Z,10.51
2023-04-16T16:23:49.548Z,10.58
2023-04-16T16:30:20.168Z,10.43
2023-04-16T16:33:24.460Z,10.39
2023-04-16T16:36:17.531Z,10.52
2023-04-16T16:39:44.378Z,10.34
2023-04-16T16:42:40.945Z,10.27
2023-04-16T16:46:34.762Z,10.19
2023-04-16T16:49:45.719Z,10.21
2023-04-16T16:52:39.333Z,10.11
2023-04-16T16:56:16.376Z,10.27
2023-04-16T16:59:34.393Z,10.28
2023-04-16T17:02:36.228Z,10.19
2023-04-16T17:06:16.746Z,10.13
2023-04-16T17:09:05.701Z,10.16
2023-04-16T17:11:57.270Z,10.17
2023-04-16T17:14:50.517Z,10.07
2023-04-16T17:17:38.895Z,10.11
2023-04-16T17:20:35.349Z,10.07
2023-04-16T17:23:30.038Z,10.13
2023-04-16T17:26:20.545Z,10.07
2023-04-16T17:29:48.080Z,10.00
2023-04-16T17:32:35.913Z,9.96
2023-04-16T17:36:23.680Z,10.01
2023-04-16T17:39:12.597Z,9.81
2023-04-16T17:42:03.417Z,9.88
2023-04-16T17:44:57.101Z,9.69
2023-04-16T17:47:44.596Z,9.73
2023-04-16T17:50:42.556Z,9.87
2023-04-16T17:57:49.051Z,9.71
2023-04-16T18:00:39.665Z,9.69
2023-04-16T18:03:39.779Z,9.64
2023-04-16T18:09:47.129Z,9.68
2023-04-16T18:12:37.461Z,9.63
2023-04-16T18:15:49.883Z,9.48
2023-04-16T18:18:40.122Z,9.48
2023-04-16T18:21:48.808Z,9.51
2023-04-16T18:24:41.917Z,9.52
2023-04-16T18:27:59.378Z,9.46
2023-04-16T18:31:04.912Z,9.27
2023-04-16T18:34:21.814Z,9.32
2023-04-16T18:37:28.241Z,9.35
2023-04-16T18:40:23.418Z,9.41
2023-04-16T18:43:11.110Z,9.38
2023-04-16T18:49:38.415Z,9.21
2023-04-16T18:52:29.093Z,9.23
2023-04-16T18:55:17.918Z,9.24
2023-04-16T18:58:14.444Z,9.36
2023-04-16T19:01:02.211Z,9.27
2023-04-16T19:03:52.737Z,9.29
2023-04-16T19:06:40.928Z,9.15
2023-04-16T19:09:38.097Z,9.03
2023-04-16T19:12:25.683Z,8.99
2023-04-16T19:15:49.035Z,9.01
2023-04-16T19:18:40.257Z,9.10
2023-04-16T19:21:49.864Z,9.13
2023-04-16T19:24:44.849Z,9.05
2023-04-16T19:27:42.425Z,9.11
2023-04-16T19:30:30.318Z,9.10
2023-04-16T19:33:51.049Z,9.14
2023-04-16T19:37:15.316Z,9.12
2023-04-16T19:43:16.052Z,9.08
2023-04-16T19:46:23.002Z,9.05
2023-04-16T19:49:10.973Z,9.08
2023-04-16T19:51:59.536Z,9.01
2023-04-16T19:54:48.030Z,8.86
2023-04-16T19:57:37.290Z,8.90
2023-04-16T20:00:34.026Z,9.09
2023-04-16T20:03:21.758Z,8.90
2023-04-16T20:06:14.079Z,8.79
2023-04-16T20:09:14.108Z,8.68
2023-04-16T20:12:02.425Z,8.72
2023-04-16T20:14:51.935Z,8.66
2023-04-16T20:17:39.682Z,8.70
2023-04-16T20:20:27.547Z,8.71
2023-04-16T20:23:14.960Z,8.76
2023-04-16T20:26:02.859Z,8.70
2023-04-16T20:28:50.348Z,8.70
2023-04-16T20:31:42.470Z,8.72
2023-04-16T20:34:29.616Z,8.66
2023-04-16T20:37:21.874Z,8.74
2023-04-16T20:40:10.742Z,8.66
2023-04-16T20:43:29.807Z,8.62
2023-04-16T20:46:17.831Z,8.51
2023-04-16T20:49:07.786Z,8.47
2023-04-16T20:51:55.759Z,8.53
2023-04-16T20:54:43.643Z,8.36
2023-04-16T20:57:35.126Z,8.45
2023-04-16T21:00:31.471Z,8.44
2023-04-16T21:03:19.473Z,8.40
2023-04-16T21:06:14.490Z,8.33
2023-04-16T21:09:23.392Z,8.23
2023-04-16T21:12:15.369Z,8.24
2023-04-16T21:15:03.761Z,8.25
2023-04-16T21:17:51.660Z,8.26
2023-04-16T21:20:40.531Z,8.20
2023-04-16T21:23:34.734Z,8.15
2023-04-16T21:26:27.599Z,8.25
2023-04-16T21:29:15.455Z,8.18
2023-04-16T21:32:04.080Z,8.01
2023-04-16T21:34:52.297Z,8.08
2023-04-16T21:37:40.141Z,8.14
2023-04-16T21:40:28.868Z,8.23
2023-04-16T21:43:16.314Z,8.13
2023-04-16T21:46:08.862Z,8.10
2023-04-16T21:48:56.367Z,8.00
2023-04-16T21:51:47.149Z,8.08
2023-04-16T21:54:38.003Z,8.01
2023-04-16T21:57:28.926Z,8.03
2023-04-16T22:00:18.544Z,8.04
2023-04-16T22:03:06.970Z,8.16
2023-04-16T22:05:58.396Z,8.10
2023-04-16T22:08:46.346Z,8.05
2023-04-16T22:11:34.100Z,8.02
2023-04-16T22:14:23.173Z,8.04
2023-04-16T22:17:15.128Z,8.02
2023-04-16T22:20:23.163Z,8.05
2023-04-16T22:23:13.114Z,8.00
2023-04-16T22:26:02.712Z,7.91
2023-04-16T22:28:50.871Z,7.88
2023-04-16T22:31:45.198Z,7.91
2023-04-16T22:34:34.287Z,8.01
2023-04-16T22:37:24.002Z,7.98
2023-04-16T22:40:12.286Z,7.95
2023-04-16T22:43:00.525Z,7.83
2023-04-16T22:45:48.223Z,7.74
2023-04-16T22:48:41.467Z,7.57
2023-04-16T22:51:32.934Z,7.63
2023-04-16T22:54:20.357Z,7.71
2023-04-16T22:57:08.302Z,7.81
2023-04-16T22:59:56.298Z,7.75
2023-04-16T23:02:44.641Z,7.73
2023-04-16T23:05:34.745Z,7.71
2023-04-16T23:08:22.404Z,7.61
2023-04-16T23:11:10.213Z,7.69
2023-04-16T23:13:57.310Z,7.85
2023-04-16T23:16:44.596Z,7.82
2023-04-16T23:19:39.738Z,7.79
2023-04-16T23:22:28.829Z,7.67
2023-04-16T23:25:16.206Z,7.65
2023-04-16T23:28:09.652Z,7.67
2023-04-16T23:30:57.356Z,7.73
2023-04-16T23:33:44.552Z,7.75
2023-04-16T23:36:35.453Z,7.74
2023-04-16T23:39:24.223Z,7.88
2023-04-16T23:42:11.665Z,7.99
2023-04-16T23:45:01.719Z,8.01
2023-04-16T23:47:49.103Z,7.89
2023-04-16T23:50:36.687Z,7.82
2023-04-16T23:53:24.422Z,7.77
2023-04-16T23:56:15.469Z,7.75
2023-04-16T23:59:03.399Z,7.79
